createdAt,value
2022-12-03T00:01:27.334Z,7.00
2022-12-03T00:03:58.114Z,7.00
2022-12-03T00:06:25.677Z,7.00
2022-12-03T00:08:55.967Z,6.90
2022-12-03T00:11:24.943Z,6.90
2022-12-03T00:13:53.563Z,6.90
2022-12-03T00:16:20.181Z,6.90
2022-12-03T00:18:49.988Z,6.90
2022-12-03T00:21:16.577Z,7.00
2022-12-03T00:23:43.130Z,7.00
2022-12-03T00:26:10.224Z,7.00
2022-12-03T00:28:36.736Z,7.00
2022-12-03T00:31:05.635Z,7.00
2022-12-03T00:33:32.275Z,7.00
2022-12-03T00:36:01.052Z,7.00
2022-12-03T00:38:27.648Z,6.90
2022-12-03T00:40:54.174Z,7.00
2022-12-03T00:43:20.739Z,7.00
2022-12-03T00:45:52.028Z,6.90
2022-12-03T00:48:23.658Z,6.90
2022-12-03T00:50:52.868Z,6.90
2022-12-03T00:53:19.453Z,6.90
2022-12-03T00:55:46.025Z,6.90
2022-12-03T00:58:14.910Z,6.90
2022-12-03T01:00:41.448Z,6.80
2022-12-03T01:03:08.025Z,6.80
2022-12-03T01:05:34.604Z,6.80
2022-12-03T01:08:01.275Z,6.70
2022-12-03T01:10:27.853Z,6.70
2022-12-03T01:12:54.380Z,6.70
2022-12-03T01:15:20.955Z,6.70
2022-12-03T01:17:47.578Z,6.70
2022-12-03T01:20:14.210Z,6.70
2022-12-03T01:22:42.510Z,6.70
2022-12-03T01:25:09.344Z,6.70
2022-12-03T01:27:38.792Z,6.70
2022-12-03T01:30:05.794Z,6.70
2022-12-03T01:32:32.335Z,6.70
2022-12-03T01:34:58.901Z,6.80
2022-12-03T01:37:26.134Z,6.80
2022-12-03T01:39:54.994Z,6.80
2022-12-03T01:42:25.635Z,6.80
2022-12-03T01:44:53.409Z,6.80
2022-12-03T01:47:22.156Z,6.80
2022-12-03T01:49:53.674Z,6.80
2022-12-03T01:52:23.052Z,6.80
2022-12-03T01:54:54.925Z,6.80
2022-12-03T01:57:27.461Z,6.80
2022-12-03T01:59:57.719Z,6.70
2022-12-03T02:02:28.459Z,6.70
2022-12-03T02:04:58.654Z,6.80
2022-12-03T02:07:42.519Z,6.70
2022-12-03T02:10:12.360Z,6.70
2022-12-03T02:12:46.114Z,6.80
2022-12-03T02:15:12.982Z,6.80
2022-12-03T02:17:41.694Z,6.80
2022-12-03T02:20:10.087Z,6.80
2022-12-03T02:22:55.482Z,6.80
2022-12-03T02:25:31.831Z,6.80
2022-12-03T02:28:00.231Z,6.80
2022-12-03T02:30:28.343Z,6.80
2022-12-03T02:32:58.834Z,6.80
2022-12-03T02:35:51.525Z,6.80
2022-12-03T02:38:25.401Z,6.90
2022-12-03T02:40:56.450Z,6.80
2022-12-03T02:43:25.429Z,6.90
2022-12-03T02:45:53.302Z,6.80
2022-12-03T02:48:22.760Z,6.80
2022-12-03T02:50:57.031Z,6.80
2022-12-03T02:53:26.329Z,6.80
2022-12-03T02:55:54.377Z,6.90
2022-12-03T02:58:21.803Z,6.90
2022-12-03T03:00:49.312Z,6.90
2022-12-03T03:03:18.965Z,6.90
2022-12-03T03:05:48.242Z,6.90
2022-12-03T03:08:17.598Z,6.90
2022-12-03T03:10:46.864Z,6.90
2022-12-03T03:13:14.311Z,6.90
2022-12-03T03:15:41.364Z,6.90
2022-12-03T03:18:08.767Z,6.90
2022-12-03T03:20:35.866Z,6.90
2022-12-03T03:23:14.976Z,6.90
2022-12-03T03:25:43.668Z,6.90
2022-12-03T03:28:12.794Z,6.90
2022-12-03T03:30:42.762Z,6.90
2022-12-03T03:33:09.844Z,6.90
2022-12-03T03:35:36.985Z,6.90
2022-12-03T03:38:03.625Z,6.90
2022-12-03T03:40:30.358Z,6.90
2022-12-03T03:42:57.322Z,6.90
2022-12-03T03:45:28.812Z,6.80
2022-12-03T03:47:57.245Z,6.80
2022-12-03T03:50:23.921Z,6.80
2022-12-03T03:52:50.527Z,6.70
2022-12-03T03:55:18.900Z,6.70
2022-12-03T03:57:46.063Z,6.70
2022-12-03T04:00:12.793Z,6.70
2022-12-03T04:02:40.215Z,6.60
2022-12-03T04:05:07.609Z,6.60
2022-12-03T04:07:34.208Z,6.60
2022-12-03T04:10:20.953Z,6.60
2022-12-03T04:12:57.847Z,6.60
2022-12-03T04:15:24.769Z,6.60
2022-12-03T04:18:10.005Z,6.60
2022-12-03T04:20:39.453Z,6.60
2022-12-03T04:23:06.064Z,6.60
2022-12-03T04:25:53.204Z,6.60
2022-12-03T04:28:40.761Z,6.60
2022-12-03T04:31:25.764Z,6.60
2022-12-03T04:34:11.230Z,6.60
2022-12-03T04:36:37.837Z,6.60
2022-12-03T04:39:04.391Z,6.60
2022-12-03T04:41:31.019Z,6.60
2022-12-03T04:44:16.426Z,6.60
2022-12-03T04:46:42.971Z,6.60
2022-12-03T04:49:10.472Z,6.60
2022-12-03T04:51:37.598Z,6.60
2022-12-03T04:54:04.159Z,6.60
2022-12-03T04:56:30.740Z,6.60
2022-12-03T04:58:57.342Z,6.60
2022-12-03T05:01:23.894Z,6.60
2022-12-03T05:03:52.516Z,6.60
2022-12-03T05:06:21.006Z,6.60
2022-12-03T05:08:47.558Z,6.60
2022-12-03T05:11:16.804Z,6.60
2022-12-03T05:13:47.652Z,6.70
2022-12-03T05:16:14.203Z,6.70
2022-12-03T05:18:46.375Z,6.70
2022-12-03T05:21:12.939Z,6.70
2022-12-03T05:23:39.502Z,6.70
2022-12-03T05:26:08.718Z,6.70
2022-12-03T05:28:35.308Z,6.70
2022-12-03T05:31:02.013Z,6.70
2022-12-03T05:33:28.656Z,6.70
2022-12-03T05:35:55.232Z,6.70
2022-12-03T05:38:21.793Z,6.70
2022-12-03T05:40:48.341Z,6.70
2022-12-03T05:43:14.910Z,6.70
2022-12-03T05:45:44.379Z,6.70
2022-12-03T05:48:12.388Z,6.70
2022-12-03T05:50:40.967Z,6.70
2022-12-03T05:53:17.407Z,6.80
2022-12-03T05:55:43.948Z,6.80
2022-12-03T05:58:18.159Z,6.80
2022-12-03T06:00:46.649Z,6.80
2022-12-03T06:03:13.279Z,6.80
2022-12-03T06:05:39.976Z,6.80
2022-12-03T06:08:06.623Z,6.80
2022-12-03T06:10:35.932Z,6.80
2022-12-03T06:13:03.232Z,6.80
2022-12-03T06:15:29.801Z,6.80
2022-12-03T06:17:56.439Z,6.80
2022-12-03T06:20:23.059Z,6.80
2022-12-03T06:22:49.616Z,6.80
2022-12-03T06:25:18.603Z,6.80
2022-12-03T06:27:47.315Z,6.80
2022-12-03T06:30:14.724Z,6.80
2022-12-03T06:32:41.366Z,6.80
2022-12-03T06:35:08.126Z,6.80
2022-12-03T06:37:34.677Z,6.80
2022-12-03T06:40:01.219Z,6.80
2022-12-03T06:42:27.740Z,6.80
2022-12-03T06:44:54.699Z,6.70
2022-12-03T06:47:21.449Z,6.70
2022-12-03T06:49:47.999Z,6.70
2022-12-03T06:52:14.528Z,6.70
2022-12-03T06:54:42.063Z,6.70
2022-12-03T06:57:08.584Z,6.70
2022-12-03T06:59:37.372Z,6.70
2022-12-03T07:02:06.718Z,6.70
2022-12-03T07:04:42.037Z,6.70
2022-12-03T07:07:11.374Z,6.70
2022-12-03T07:09:38.859Z,6.60
2022-12-03T07:12:05.630Z,6.60
2022-12-03T07:16:02.315Z,6.60
2022-12-03T07:18:28.936Z,6.50
2022-12-03T07:21:02.775Z,6.50
2022-12-03T07:23:29.397Z,6.40
2022-12-03T07:25:56.030Z,6.40
2022-12-03T07:28:22.668Z,6.40
2022-12-03T07:30:51.519Z,6.40
2022-12-03T07:33:20.076Z,6.30
2022-12-03T07:35:57.627Z,6.30
2022-12-03T07:38:27.381Z,6.30
2022-12-03T07:40:53.970Z,6.30
2022-12-03T07:43:20.591Z,6.30
2022-12-03T07:45:47.232Z,6.30
2022-12-03T07:48:13.876Z,6.30
2022-12-03T07:50:40.514Z,6.30
2022-12-03T07:53:07.115Z,6.40
2022-12-03T07:55:33.718Z,6.40
2022-12-03T07:58:00.338Z,6.40
2022-12-03T08:00:27.048Z,6.40
2022-12-03T08:02:53.667Z,6.40
2022-12-03T08:05:20.292Z,6.40
2022-12-03T08:07:46.967Z,6.40
2022-12-03T08:10:13.643Z,6.40
2022-12-03T08:12:40.498Z,6.40
2022-12-03T08:15:17.966Z,6.40
2022-12-03T08:17:46.722Z,6.40
2022-12-03T08:20:19.806Z,6.40
2022-12-03T08:22:48.896Z,6.50
2022-12-03T08:25:28.762Z,6.50
2022-12-03T08:28:02.445Z,6.50
2022-12-03T08:30:29.168Z,6.50
2022-12-03T08:32:58.448Z,6.50
2022-12-03T08:35:30.145Z,6.60
2022-12-03T08:38:09.350Z,6.60
2022-12-03T08:40:40.722Z,6.60
2022-12-03T08:43:18.249Z,6.60
2022-12-03T08:45:45.203Z,6.60
2022-12-03T08:48:42.822Z,6.60
2022-12-03T08:51:24.358Z,6.60
2022-12-03T08:54:01.718Z,6.60
2022-12-03T08:56:36.474Z,6.60
2022-12-03T08:59:25.322Z,6.60
2022-12-03T09:01:53.482Z,6.50
2022-12-03T09:04:27.422Z,6.50
2022-12-03T09:06:55.160Z,6.60
2022-12-03T09:09:22.871Z,6.60
2022-12-03T09:11:53.125Z,6.60
2022-12-03T09:14:22.448Z,6.60
2022-12-03T09:16:51.930Z,6.70
2022-12-03T09:19:24.876Z,6.70
2022-12-03T09:21:54.435Z,6.70
2022-12-03T09:24:21.190Z,6.70
2022-12-03T09:26:52.486Z,6.80
2022-12-03T09:29:19.154Z,6.80
2022-12-03T09:31:47.173Z,6.80
2022-12-03T09:34:13.895Z,6.80
2022-12-03T09:36:42.975Z,6.80
2022-12-03T09:39:09.602Z,6.90
2022-12-03T09:41:46.099Z,6.90
2022-12-03T09:44:17.439Z,6.90
2022-12-03T09:46:45.935Z,6.90
2022-12-03T09:49:17.560Z,7.00
2022-12-03T09:51:44.971Z,7.00
2022-12-03T09:54:22.037Z,7.00
2022-12-03T09:56:52.851Z,7.00
2022-12-03T09:59:20.577Z,7.00
2022-12-03T10:01:47.699Z,7.00
2022-12-03T10:04:14.602Z,7.00
2022-12-03T10:06:45.814Z,7.00
2022-12-03T10:09:23.616Z,7.00
2022-12-03T10:11:50.279Z,7.10
2022-12-03T10:14:18.811Z,7.10
2022-12-03T10:16:46.102Z,7.10
2022-12-03T10:19:31.443Z,7.10
2022-12-03T10:21:58.207Z,7.10
2022-12-03T10:24:33.212Z,7.10
2022-12-03T10:27:02.311Z,7.20
2022-12-03T10:29:34.373Z,7.20
2022-12-03T10:32:07.412Z,7.20
2022-12-03T10:34:39.591Z,7.30
2022-12-03T10:37:19.374Z,7.30
2022-12-03T10:40:11.880Z,7.40
2022-12-03T10:42:40.758Z,7.50
2022-12-03T10:45:29.725Z,7.50
2022-12-03T10:48:14.193Z,7.60
2022-12-03T10:50:48.309Z,7.70
2022-12-03T10:53:15.252Z,7.70
2022-12-03T10:55:43.700Z,7.70
2022-12-03T10:58:23.374Z,7.70
2022-12-03T11:00:53.316Z,7.80
2022-12-03T11:03:25.941Z,7.80
2022-12-03T11:05:54.603Z,7.80
2022-12-03T11:08:24.430Z,7.80
2022-12-03T11:11:00.810Z,7.80
2022-12-03T11:13:33.395Z,7.90
2022-12-03T11:16:04.244Z,7.90
2022-12-03T11:18:37.018Z,7.90
2022-12-03T11:21:06.599Z,7.90
2022-12-03T11:23:45.115Z,7.90
2022-12-03T11:26:18.593Z,8.00
2022-12-03T11:28:45.974Z,8.00
2022-12-03T11:31:44.529Z,8.00
2022-12-03T11:34:20.307Z,8.00
2022-12-03T11:37:11.861Z,8.00
2022-12-03T11:39:50.997Z,8.00
2022-12-03T11:42:26.455Z,8.00
2022-12-03T11:45:05.205Z,8.10
2022-12-03T11:47:31.794Z,8.10
2022-12-03T11:49:58.793Z,8.10
2022-12-03T11:52:33.163Z,8.10
2022-12-03T11:55:13.823Z,8.10
2022-12-03T11:57:42.963Z,8.10
2022-12-03T12:00:17.644Z,8.10
2022-12-03T12:02:44.582Z,8.10
2022-12-03T12:05:19.056Z,8.10
2022-12-03T12:07:47.984Z,8.10
2022-12-03T12:10:40.527Z,8.10
2022-12-03T12:13:24.645Z,8.10
2022-12-03T12:15:51.583Z,8.10
2022-12-03T12:18:40.148Z,8.10
2022-12-03T12:21:41.946Z,8.10
2022-12-03T12:24:28.926Z,8.10
2022-12-03T12:26:56.635Z,8.10
2022-12-03T12:29:23.212Z,8.10
2022-12-03T12:31:53.948Z,8.10
2022-12-03T12:34:20.950Z,8.10
2022-12-03T12:36:47.544Z,8.10
2022-12-03T12:39:16.120Z,8.10
2022-12-03T12:41:47.497Z,8.10
2022-12-03T12:44:14.342Z,8.20
2022-12-03T12:46:48.472Z,8.20
2022-12-03T12:49:15.807Z,8.20
2022-12-03T12:51:47.244Z,8.20
2022-12-03T12:54:16.065Z,8.30
2022-12-03T12:56:49.840Z,8.30
2022-12-03T12:59:20.603Z,8.30
2022-12-03T13:01:49.176Z,8.30
2022-12-03T13:04:22.168Z,8.30
2022-12-03T13:06:55.345Z,8.40
2022-12-03T13:09:24.954Z,8.40
2022-12-03T13:11:55.582Z,8.30
2022-12-03T13:14:24.463Z,8.40
2022-12-03T13:16:52.726Z,8.30
2022-12-03T13:19:25.384Z,8.30
2022-12-03T13:21:54.912Z,8.30
2022-12-03T13:24:37.768Z,8.30
2022-12-03T13:27:21.663Z,8.30
2022-12-03T13:30:01.388Z,8.30
2022-12-03T13:32:33.652Z,8.30
2022-12-03T13:35:03.745Z,8.30
2022-12-03T13:37:33.945Z,8.30
2022-12-03T13:40:17.219Z,8.20
2022-12-03T13:42:46.524Z,8.20
2022-12-03T13:45:15.212Z,8.10
2022-12-03T13:47:56.375Z,8.10
2022-12-03T13:50:35.823Z,8.10
2022-12-03T13:53:09.320Z,8.00
2022-12-03T13:55:39.448Z,7.90
2022-12-03T13:58:06.111Z,7.90
2022-12-03T14:00:32.708Z,7.80
2022-12-03T14:02:59.312Z,7.80
2022-12-03T14:05:25.952Z,7.70
2022-12-03T14:07:52.624Z,7.80
2022-12-03T14:10:19.248Z,7.70
2022-12-03T14:12:45.887Z,7.70
2022-12-03T14:15:12.520Z,7.70
2022-12-03T14:17:39.175Z,7.70
2022-12-03T14:20:06.610Z,7.70
2022-12-03T14:22:33.469Z,7.60
2022-12-03T14:25:00.042Z,7.60
2022-12-03T14:27:27.388Z,7.60
2022-12-03T14:29:54.412Z,7.60
2022-12-03T14:32:21.337Z,7.60
2022-12-03T14:34:48.363Z,7.50
2022-12-03T14:37:17.920Z,7.50
2022-12-03T14:39:44.553Z,7.50
2022-12-03T14:42:13.940Z,7.40
2022-12-03T14:44:47.656Z,7.40
2022-12-03T14:47:16.041Z,7.40
2022-12-03T14:49:42.710Z,7.40
2022-12-03T14:52:12.290Z,7.40
2022-12-03T14:54:42.332Z,7.40
2022-12-03T14:57:13.169Z,7.30
2022-12-03T14:59:43.941Z,7.30
2022-12-03T15:02:12.160Z,7.30
2022-12-03T15:04:39.884Z,7.30
2022-12-03T15:07:06.654Z,7.30
2022-12-03T15:09:33.399Z,7.30
2022-12-03T15:12:00.074Z,7.30
2022-12-03T15:14:27.152Z,7.30
2022-12-03T15:16:55.991Z,7.30
2022-12-03T15:19:22.740Z,7.30
2022-12-03T15:21:49.332Z,7.20
2022-12-03T15:24:15.996Z,7.30
2022-12-03T15:26:42.567Z,7.20
2022-12-03T15:29:09.196Z,7.30
2022-12-03T15:31:35.824Z,7.20
2022-12-03T15:34:06.224Z,7.20
2022-12-03T15:36:32.875Z,7.20
2022-12-03T15:38:59.479Z,7.20
2022-12-03T15:41:29.486Z,7.20
2022-12-03T15:43:58.329Z,7.10
2022-12-03T15:46:25.982Z,7.20
2022-12-03T15:48:53.001Z,7.10
2022-12-03T15:51:19.795Z,7.10
2022-12-03T15:53:46.433Z,7.10
2022-12-03T15:56:13.301Z,7.10
2022-12-03T15:58:42.926Z,7.10
2022-12-03T16:01:09.780Z,7.10
2022-12-03T16:03:36.670Z,7.10
2022-12-03T16:06:03.409Z,7.10
2022-12-03T16:08:31.205Z,7.00
2022-12-03T16:10:57.868Z,7.00
2022-12-03T16:13:24.653Z,7.00
2022-12-03T16:15:51.379Z,7.00
2022-12-03T16:18:18.031Z,7.00
2022-12-03T16:20:44.722Z,7.00
2022-12-03T16:23:11.419Z,7.00
2022-12-03T16:25:38.035Z,7.00
2022-12-03T16:28:06.107Z,7.00
2022-12-03T16:30:32.724Z,7.00
2022-12-03T16:32:59.374Z,7.00
2022-12-03T16:35:25.984Z,7.00
2022-12-03T16:37:52.595Z,7.00
2022-12-03T16:40:19.191Z,7.00
2022-12-03T16:42:45.851Z,7.00
2022-12-03T16:45:31.966Z,7.00
2022-12-03T16:47:59.028Z,7.00
2022-12-03T16:50:30.025Z,7.00
2022-12-03T16:52:57.593Z,7.00
2022-12-03T16:55:24.461Z,7.00
2022-12-03T16:57:51.071Z,7.00
2022-12-03T17:00:17.951Z,7.00
2022-12-03T17:02:44.684Z,7.00
2022-12-03T17:05:11.451Z,7.00
2022-12-03T17:07:38.223Z,7.10
2022-12-03T17:10:06.045Z,7.00
2022-12-03T17:12:48.269Z,7.00
2022-12-03T17:15:19.261Z,6.90
2022-12-03T17:17:46.045Z,7.00
2022-12-03T17:20:16.125Z,6.90
2022-12-03T17:22:45.243Z,7.00
2022-12-03T17:25:12.210Z,7.00
2022-12-03T17:27:44.824Z,6.90
2022-12-03T17:30:15.489Z,6.90
2022-12-03T17:32:42.228Z,6.90
2022-12-03T17:35:11.846Z,6.90
2022-12-03T17:37:39.611Z,6.90
2022-12-03T17:40:08.391Z,6.90
2022-12-03T17:42:34.986Z,6.90
2022-12-03T17:45:09.336Z,6.90
2022-12-03T17:47:38.096Z,7.00
2022-12-03T17:50:05.586Z,7.00
2022-12-03T17:52:36.444Z,7.00
2022-12-03T17:55:15.783Z,7.00
2022-12-03T17:57:48.144Z,6.90
2022-12-03T18:00:17.663Z,7.00
2022-12-03T18:02:44.269Z,7.00
2022-12-03T18:05:10.964Z,7.00
2022-12-03T18:07:37.664Z,6.90
2022-12-03T18:10:04.904Z,6.90
2022-12-03T18:12:31.567Z,6.90
2022-12-03T18:14:58.209Z,6.90
2022-12-03T18:17:24.813Z,6.90
2022-12-03T18:19:51.622Z,6.90
2022-12-03T18:22:20.896Z,6.90
2022-12-03T18:24:52.257Z,6.90
2022-12-03T18:27:20.329Z,6.90
2022-12-03T18:29:49.708Z,6.90
2022-12-03T18:32:28.308Z,6.90
2022-12-03T18:34:58.797Z,6.90
2022-12-03T18:37:31.222Z,6.90
2022-12-03T18:40:12.445Z,6.90
2022-12-03T18:42:40.444Z,6.90
2022-12-03T18:45:12.633Z,6.90
2022-12-03T18:47:39.338Z,6.90
2022-12-03T18:50:09.458Z,6.90
2022-12-03T18:52:36.342Z,6.90
2022-12-03T18:55:05.852Z,6.80
2022-12-03T18:57:32.473Z,6.90
2022-12-03T19:00:01.733Z,6.90
2022-12-03T19:05:17.711Z,6.80
2022-12-03T19:07:46.715Z,6.80
2022-12-03T19:10:15.987Z,6.90
2022-12-03T19:12:42.651Z,6.80
2022-12-03T19:15:14.984Z,6.80
2022-12-03T19:17:49.132Z,6.80
2022-12-03T19:20:15.733Z,6.80
2022-12-03T19:22:42.380Z,6.80
2022-12-03T19:25:09.192Z,6.80
2022-12-03T19:27:35.790Z,6.80
2022-12-03T19:30:05.246Z,6.70
2022-12-03T19:32:31.924Z,6.80
2022-12-03T19:34:58.798Z,6.70
2022-12-03T19:37:26.332Z,6.70
2022-12-03T19:39:55.386Z,6.70
2022-12-03T19:42:24.924Z,6.70
2022-12-03T19:44:51.585Z,6.70
2022-12-03T19:47:21.043Z,6.70
2022-12-03T19:49:50.049Z,6.70
2022-12-03T19:52:16.678Z,6.70
2022-12-03T19:54:43.399Z,6.80
2022-12-03T19:57:10.574Z,6.80
2022-12-03T19:59:42.449Z,6.80
2022-12-03T20:02:12.227Z,6.80
2022-12-03T20:04:38.942Z,6.80
2022-12-03T20:07:08.274Z,6.80
2022-12-03T20:09:34.922Z,6.80
2022-12-03T20:12:04.263Z,6.80
2022-12-03T20:14:30.971Z,6.80
2022-12-03T20:17:03.311Z,6.80
2022-12-03T20:19:33.379Z,6.80
2022-12-03T20:22:03.916Z,6.80
2022-12-03T20:24:32.742Z,6.80
2022-12-03T20:27:00.959Z,6.80
2022-12-03T20:29:30.879Z,6.80
2022-12-03T20:32:00.430Z,6.70
2022-12-03T20:34:27.152Z,6.80
2022-12-03T20:36:57.894Z,6.80
2022-12-03T20:39:27.058Z,6.70
2022-12-03T20:41:55.932Z,6.80
2022-12-03T20:44:24.517Z,6.70
2022-12-03T20:46:51.194Z,6.70
2022-12-03T20:49:17.907Z,6.70
2022-12-03T20:51:49.899Z,6.70
2022-12-03T20:54:16.543Z,6.70
2022-12-03T20:56:43.194Z,6.70
2022-12-03T20:59:15.728Z,6.70
2022-12-03T21:01:47.347Z,6.70
2022-12-03T21:04:14.368Z,6.70
2022-12-03T21:06:42.271Z,6.70
2022-12-03T21:09:12.436Z,6.70
2022-12-03T21:11:42.190Z,6.70
2022-12-03T21:14:12.625Z,6.70
2022-12-03T21:19:38.872Z,6.70
2022-12-03T21:22:07.494Z,6.70
2022-12-03T21:24:34.579Z,6.70
2022-12-03T21:27:02.279Z,6.70
2022-12-03T21:29:31.449Z,6.70
2022-12-03T21:32:00.580Z,6.70
2022-12-03T21:34:35.867Z,6.70
2022-12-03T21:37:07.210Z,6.70
2022-12-03T21:39:33.935Z,6.70
2022-12-03T21:42:18.836Z,6.70
2022-12-03T21:44:50.851Z,6.70
2022-12-03T21:47:17.536Z,6.70
2022-12-03T21:49:46.744Z,6.70
2022-12-03T21:52:13.430Z,6.70
2022-12-03T21:54:40.132Z,6.70
2022-12-03T21:57:06.766Z,6.70
2022-12-03T21:59:33.494Z,6.70
2022-12-03T22:02:02.611Z,6.70
2022-12-03T22:04:29.464Z,6.70
2022-12-03T22:06:56.125Z,6.70
2022-12-03T22:09:28.190Z,6.70
2022-12-03T22:11:56.746Z,6.70
2022-12-03T22:14:23.418Z,6.60
2022-12-03T22:16:52.510Z,6.70
2022-12-03T22:19:25.496Z,6.60
2022-12-03T22:21:52.559Z,6.60
2022-12-03T22:24:19.514Z,6.50
2022-12-03T22:26:47.401Z,6.60
2022-12-03T22:29:23.237Z,6.60
2022-12-03T22:31:52.207Z,6.60
2022-12-03T22:34:18.904Z,6.60
2022-12-03T22:36:45.494Z,6.60
2022-12-03T22:39:14.065Z,6.60
2022-12-03T22:41:48.178Z,6.50
2022-12-03T22:44:17.509Z,6.50
2022-12-03T22:46:45.389Z,6.50
2022-12-03T22:49:13.385Z,6.50
2022-12-03T22:51:40.041Z,6.50
2022-12-03T22:54:10.599Z,6.50
2022-12-03T22:56:38.901Z,6.50
2022-12-03T22:59:09.212Z,6.50
2022-12-03T23:01:42.967Z,6.50
2022-12-03T23:04:12.776Z,6.50
2022-12-03T23:06:42.732Z,6.50
2022-12-03T23:09:11.853Z,6.50
2022-12-03T23:11:41.047Z,6.50
2022-12-03T23:14:07.658Z,6.50
2022-12-03T23:16:39.912Z,6.50
2022-12-03T23:19:06.556Z,6.50
2022-12-03T23:21:35.128Z,6.60
2022-12-03T23:24:04.295Z,6.60
2022-12-03T23:26:37.657Z,6.60
2022-12-03T23:29:08.299Z,6.60
2022-12-03T23:31:35.226Z,6.60
2022-12-03T23:34:02.511Z,6.50
2022-12-03T23:36:36.812Z,6.60
2022-12-03T23:39:06.931Z,6.60
2022-12-03T23:41:33.601Z,6.60
2022-12-03T23:44:00.219Z,6.60
2022-12-03T23:46:29.663Z,6.50
2022-12-03T23:48:59.616Z,6.60
2022-12-03T23:51:27.094Z,6.50
2022-12-03T23:53:56.643Z,6.60
2022-12-03T23:56:34.893Z,6.50
2022-12-03T23:59:03.530Z,6.60
